Latest Weather Observations for Adele Island

IDW60801

Issued at 10:04 pm WST Saturday 23 January 2021 (issued every 10 minutes, with the page automatically refreshed every 10 minutes)

About weather observations | Map of weather stations | Latest weather observations for WA | Other Formats
Station Details ID: 200735 Name: ADELE ISLAND Lat: -15.51 Lon: 123.16 Height: 4.6 m
Data from the previous 72 hours. | See also: Recent months at Adele Island
Date/Time
WST
Temp
°C
App
Temp
°C
Dew
Point
°C
Rel
Hum
%
Delta-T
°C
Wind Press
QNH
hPa
Press
MSL
hPa
Rain since
9am
mm
Dir  Spd
km/h
Gust
km/h
Spd
kts
Gust
kts
23/10:00pm 28.9 - - - - WNW 19 20 10 11 1007.8 1007.7 -
23/09:30pm 29.0 - - - - WNW 20 24 11 13 1007.9 1007.8 -
23/09:17pm 29.0 - - - - WNW 19 - 10 - - 1007.6 -
23/09:00pm 28.9 - - - - WNW 19 22 10 12 1007.5 1007.4 -
23/08:30pm 28.9 - - - - WNW 19 24 10 13 1007.4 1007.3 -
23/08:17pm 28.9 - - - - WNW 20 - 11 - - 1007.2 -
23/08:00pm 28.9 - - - - WNW 19 24 10 13 1007.0 1006.9 -
23/07:30pm 29.0 - - - - W 20 28 11 15 1006.4 1006.3 -
23/07:17pm 28.9 - - - - W 19 - 10 - - 1006.1 -
23/07:00pm 28.9 - - - - W 20 24 11 13 1006.1 1006.0 -
23/06:30pm 29.0 - - - - W 19 22 10 12 1005.7 1005.6 -
23/06:17pm 28.8 - - - - W 19 - 10 - - 1005.5 -
23/06:00pm 28.9 - - - - W 20 24 11 13 1005.2 1005.1 -
23/05:30pm 29.0 - - - - W 22 28 12 15 1005.0 1004.9 -
23/05:17pm 29.1 - - - - W 24 - 13 - - 1004.8 -
23/05:00pm 29.3 - - - - W 24 32 13 17 1004.8 1004.7 -
23/04:30pm 29.2 - - - - W 28 35 15 19 1004.7 1004.6 -
23/04:17pm 29.3 - - - - W 26 - 14 - - 1004.6 -
23/04:00pm 29.3 - - - - W 32 41 17 22 1004.8 1004.7 -
23/03:30pm 29.0 - - - - W 35 44 19 24 1004.8 1004.7 -
23/03:17pm 28.3 - - - - W 35 - 19 - - 1004.9 -
23/03:13pm 28.6 - - - - W 35 48 19 26 1005.0 1004.9 -
23/03:00pm 30.5 - - - - WNW 30 39 16 21 1005.0 1004.9 -
23/02:30pm 30.4 - - - - WNW 30 35 16 19 1004.9 1004.8 -
23/02:17pm 30.4 - - - - WNW 30 - 16 - - 1005.0 -
23/02:00pm 30.5 - - - - WNW 28 35 15 19 1005.2 1005.1 -
23/01:30pm 30.7 - - - - WNW 28 35 15 19 1005.0 1004.9 -
23/01:17pm 30.7 - - - - WNW 30 - 16 - - 1005.0 -
23/01:00pm 30.5 - - - - WNW 28 33 15 18 1005.2 1005.1 -
23/12:30pm 30.7 - - - - WNW 26 32 14 17 1005.5 1005.4 -
23/12:17pm 30.5 - - - - WNW 26 - 14 - - 1005.4 -
23/12:00pm 30.5 - - - - WNW 24 32 13 17 1005.7 1005.6 -
23/11:30am 30.4 - - - - NW 30 37 16 20 1005.8 1005.7 -
23/11:17am 30.5 - - - - WNW 28 - 15 - - 1005.7 -
23/11:00am 30.5 - - - - NW 26 32 14 17 1005.9 1005.8 -
23/10:30am 29.7 - - - - NW 26 32 14 17 1006.4 1006.3 -
23/10:17am 29.8 - - - - NW 24 - 13 - - 1006.5 -
23/10:00am 29.8 - - - - NW 22 28 12 15 1006.6 1006.5 -
23/09:30am 30.9 - - - - WNW 24 30 13 16 1006.8 1006.7 -
23/09:17am 30.5 - - - - WNW 26 - 14 - - 1006.7 -
23/09:00am 30.2 - - - - WNW 26 33 14 18 1006.9 1006.8 -
23/08:30am 29.3 - - - - NW 24 32 13 17 1006.8 1006.7 -
23/08:17am 28.7 - - - - NNW 20 - 11 - - 1006.6 -
23/08:03am 28.6 - - - - WNW 32 50 17 27 1006.5 1006.4 -
23/08:00am 28.9 - - - - NW 30 37 16 20 1006.6 1006.5 -
23/07:30am 29.5 - - - - NW 28 32 15 17 1006.2 1006.1 -
23/07:17am 29.3 - - - - NW 26 - 14 - - 1005.9 -
23/07:00am 29.2 - - - - NW 26 32 14 17 1006.0 1005.9 -
23/06:30am 29.3 - - - - NW 30 35 16 19 1005.4 1005.3 -
23/06:17am 28.9 - - - - NW 28 - 15 - - 1005.1 -
23/06:00am 29.0 - - - - NW 30 33 16 18 1005.1 1005.0 -
23/05:30am 29.1 - - - - NW 32 37 17 20 1004.9 1004.8 -
23/05:17am 28.9 - - - - NW 30 - 16 - - 1004.5 -
23/05:00am 29.0 - - - - NW 32 37 17 20 1004.3 1004.2 -
23/04:30am 28.9 - - - - NW 30 35 16 19 1004.0 1003.9 -
23/04:17am 29.0 - - - - NW 32 - 17 - - 1003.7 -
23/04:00am 29.0 - - - - NW 32 37 17 20 1003.7 1003.6 -
23/03:30am 28.8 - - - - NW 28 35 15 19 1003.5 1003.4 -
23/03:17am 28.8 - - - - NW 26 - 14 - - 1003.4 -
23/03:00am 28.7 - - - - NW 32 35 17 19 1003.4 1003.3 -
23/02:30am 28.6 - - - - NW 30 35 16 19 1003.5 1003.4 -
23/02:17am 28.5 - - - - NW 28 - 15 - - 1003.5 -
23/02:00am 28.6 - - - - NW 30 35 16 19 1003.8 1003.7 -
23/01:30am 28.7 - - - - NW 28 33 15 18 1004.0 1003.9 -
23/01:17am 28.6 - - - - NW 28 - 15 - - 1004.1 -
23/01:00am 28.5 - - - - NW 28 32 15 17 1004.4 1004.3 -
23/12:30am 28.5 - - - - NW 28 32 15 17 1004.6 1004.5 -
23/12:17am 28.5 - - - - NW 28 - 15 - - 1004.7 -
23/12:00am 28.4 - - - - NW 24 28 13 15 1005.1 1005.0 -
 
Date/Time
WST
Temp
°C
App
Temp
°C
Dew
Point
°C
Rel
Hum
%
Delta-T
°C
Wind Press
QNH
hPa
Press
MSL
hPa
Rain since
9am
mm
Dir  Spd
km/h
Gust
km/h
Spd
kts
Gust
kts
22/11:30pm 28.6 - - - - NW 26 32 14 17 1005.3 1005.2 -
22/11:17pm 28.6 - - - - NW 26 - 14 - - 1005.3 -
22/11:00pm 28.7 - - - - NW 26 30 14 16 1005.5 1005.4 -
22/10:30pm 28.4 - - - - NW 24 30 13 16 1005.7 1005.6 -
22/10:17pm 28.2 - - - - NW 20 - 11 - - 1005.7 -
22/10:00pm 27.9 - - - - NW 15 19 8 10 1005.8 1005.7 -
22/09:30pm 27.2 - - - - WNW 19 26 10 14 1005.9 1005.8 -
22/09:17pm 26.9 - - - - W 22 - 12 - - 1005.9 -
22/09:00pm 28.0 - - - - NNW 30 37 16 20 1005.6 1005.5 -
22/08:30pm 28.9 - - - - NW 30 35 16 19 1005.4 1005.3 -
22/08:17pm 28.8 - - - - NW 28 - 15 - - 1005.0 -
22/08:00pm 28.8 - - - - NW 30 33 16 18 1005.0 1004.9 -
22/07:30pm 28.9 - - - - NW 32 37 17 20 1004.8 1004.7 -
22/07:17pm 28.8 - - - - NNW 26 - 14 - - 1004.5 -
22/07:00pm 28.5 - - - - NNW 26 30 14 16 1004.4 1004.3 -
22/06:30pm 28.9 - - - - NW 33 41 18 22 1003.9 1003.8 -
22/06:17pm 29.2 - - - - NW 32 - 17 - - 1003.6 -
22/06:00pm 29.3 - - - - NW 32 39 17 21 1003.7 1003.6 -
22/05:30pm 29.4 - - - - NNW 28 35 15 19 1003.6 1003.5 -
22/05:17pm 29.2 - - - - NNW 30 - 16 - - 1003.3 -
22/05:00pm 29.2 - - - - NW 30 37 16 20 1003.1 1003.0 -
22/04:30pm 29.2 - - - - NW 35 43 19 23 1002.9 1002.8 -
22/04:17pm 29.2 - - - - NW 33 - 18 - - 1002.6 -
22/04:00pm 29.3 - - - - NW 32 37 17 20 1002.6 1002.5 -
22/03:30pm 29.3 - - - - NNW 33 39 18 21 1002.8 1002.7 -
22/03:17pm 29.3 - - - - NNW 33 - 18 - - 1002.8 -
22/03:00pm 29.3 - - - - NNW 33 39 18 21 1002.9 1002.8 -
22/02:30pm 29.5 - - - - NNW 35 43 19 23 1003.3 1003.2 -
22/02:17pm 29.4 - - - - NNW 39 - 21 - - 1003.2 -
22/02:00pm 29.8 - - - - NNW 39 46 21 25 1003.5 1003.4 -
22/01:30pm 29.4 - - - - NNW 37 46 20 25 1003.9 1003.8 -
22/01:17pm 29.4 - - - - NNW 39 - 21 - - 1003.7 -
22/01:00pm 29.5 - - - - NNW 35 44 19 24 1003.8 1003.7 -
22/12:30pm 29.7 - - - - NNW 39 44 21 24 1004.0 1003.9 -
22/12:17pm 30.0 - - - - NNW 37 - 20 - - 1004.0 -
22/12:00pm 29.7 - - - - NNW 30 43 16 23 1004.4 1004.3 -
22/11:30am 28.2 - - - - N 33 41 18 22 1004.8 1004.7 -
22/11:17am 28.2 - - - - N 35 - 19 - - 1004.9 -
22/11:00am 27.2 - - - - NNW 35 54 19 29 1005.4 1005.3 -
22/10:53am 24.9 - - - - NNW 46 65 25 35 1005.7 1005.6 -
22/10:50am 25.2 - - - - NNW 44 65 24 35 1005.8 1005.7 -
22/10:46am 28.3 - - - - NNW 33 54 18 29 1005.7 1005.6 -
22/10:30am 28.8 - - - - N 33 43 18 23 1005.7 1005.6 -
22/10:17am 29.5 - - - - NNW 32 - 17 - - 1005.6 -
22/10:00am 29.4 - - - - NNW 30 35 16 19 1005.9 1005.8 -
22/09:30am 29.7 - - - - N 30 37 16 20 1005.7 1005.6 -
22/09:17am 29.6 - - - - N 33 - 18 - - 1005.7 -
22/09:00am 29.6 - - - - N 32 35 17 19 1005.7 1005.6 -
22/08:30am 29.5 - - - - N 35 43 19 23 1005.8 1005.7 -
22/08:17am 29.6 - - - - N 37 - 20 - - 1005.6 -
22/08:00am 29.7 - - - - N 33 41 18 22 1005.6 1005.5 -
22/07:30am 29.4 - - - - N 33 39 18 21 1005.6 1005.5 -
22/07:17am 29.2 - - - - N 35 - 19 - - 1005.4 -
22/07:00am 29.1 - - - - N 32 37 17 20 1005.5 1005.4 -
22/06:30am 28.9 - - - - N 32 41 17 22 1005.2 1005.1 -
22/06:17am 28.8 - - - - N 32 - 17 - - 1005.2 -
22/06:00am 28.6 - - - - N 35 41 19 22 1005.2 1005.1 -
22/05:30am 29.0 - - - - N 35 43 19 23 1004.9 1004.8 -
22/05:17am 28.9 - - - - N 35 - 19 - - 1004.6 -
22/05:00am 28.6 - - - - NNW 35 41 19 22 1004.4 1004.3 -
22/04:30am 28.7 - - - - N 35 52 19 28 1004.0 1003.9 -
22/04:17am 28.7 - - - - N 37 - 20 - - 1003.8 -
22/04:00am 28.3 - - - - N 35 41 19 22 1004.1 1004.0 -
22/03:30am 27.1 - - - - NNW 43 50 23 27 1004.5 1004.4 -
22/03:17am 29.3 - - - - NNW 39 - 21 - - 1004.1 -
22/03:00am 29.3 - - - - N 35 44 19 24 1004.4 1004.3 -
22/02:30am 29.4 - - - - N 35 41 19 22 1004.2 1004.1 -
22/02:17am 29.5 - - - - N 37 - 20 - - 1004.2 -
22/02:00am 29.3 - - - - N 35 43 19 23 1004.2 1004.1 -
22/01:30am 29.2 - - - - N 33 41 18 22 1004.5 1004.4 -
22/01:17am 29.6 - - - - N 37 - 20 - - 1004.5 -
22/01:00am 29.4 - - - - N 37 43 20 23 1004.6 1004.5 -
22/12:30am 29.5 - - - - N 37 43 20 23 1004.9 1004.8 -
22/12:17am 29.6 - - - - N 33 - 18 - - 1005.0 -
22/12:00am 29.6 - - - - N 39 43 21 23 1005.5 1005.4 -
 
Date/Time
WST
Temp
°C
App
Temp
°C
Dew
Point
°C
Rel
Hum
%
Delta-T
°C
Wind Press
QNH
hPa
Press
MSL
hPa
Rain since
9am
mm
Dir  Spd
km/h
Gust
km/h
Spd
kts
Gust
kts
21/11:30pm 29.4 - - - - N 32 35 17 19 1005.7 1005.6 -
21/11:17pm 29.5 - - - - N 35 - 19 - - 1005.8 -
21/11:00pm 29.6 - - - - N 37 43 20 23 1006.1 1006.0 -
21/10:30pm 29.5 - - - - N 35 44 19 24 1006.4 1006.3 -
21/10:17pm 29.6 - - - - N 35 - 19 - - 1006.4 -
21/10:00pm 29.5 - - - - N 33 39 18 21 1006.5 1006.4 -
21/09:30pm 29.4 - - - - N 33 41 18 22 1006.1 1006.0 -
21/09:17pm 29.5 - - - - N 33 - 18 - - 1005.9 -
21/09:00pm 29.7 - - - - N 35 43 19 23 1005.8 1005.7 -
21/08:30pm 29.6 - - - - N 35 43 19 23 1005.7 1005.6 -
21/08:17pm 29.6 - - - - N 33 - 18 - - 1005.4 -
21/08:00pm 29.4 - - - - N 35 41 19 22 1005.1 1005.0 -
21/07:30pm 29.5 - - - - N 33 37 18 20 1005.0 1004.9 -
21/07:17pm 29.6 - - - - N 33 - 18 - - 1004.9 -
21/07:00pm 28.8 - - - - N 24 30 13 16 1004.8 1004.7 -
21/06:30pm 28.7 - - - - N 32 35 17 19 1004.4 1004.3 -
21/06:17pm 28.5 - - - - N 32 - 17 - - 1004.3 -
21/06:00pm 28.5 - - - - N 35 41 19 22 1004.4 1004.3 -
21/05:30pm 27.9 - - - - N 32 37 17 20 1004.2 1004.1 -
21/05:18pm 27.3 - - - - N 33 - 18 - - 1004.2 -
21/05:00pm 27.7 - - - - N 32 39 17 21 1004.0 1003.9 -
21/04:30pm 26.5 - - - - N 41 54 22 29 1003.7 1003.6 -
21/04:18pm 27.9 - - - - N 35 - 19 - - 1003.5 -
21/04:00pm 26.8 - - - - N 41 52 22 28 1003.4 1003.3 -
21/03:30pm 28.8 - - - - N 35 43 19 23 1003.8 1003.7 -
21/03:17pm 28.8 - - - - N 37 - 20 - - 1003.9 -
21/03:00pm 28.7 - - - - N 35 43 19 23 1004.3 1004.2 -
21/02:30pm 27.3 - - - - N 41 48 22 26 1004.7 1004.6 -
21/02:17pm 28.1 - - - - N 33 - 18 - - 1004.6 -
21/02:00pm 28.1 - - - - N 37 43 20 23 1004.7 1004.6 -
21/01:30pm 27.3 - - - - N 28 33 15 18 1004.7 1004.6 -
21/01:17pm 26.3 - - - - N 39 - 21 - - 1005.1 -
21/01:00pm 28.2 - - - - NNE 39 48 21 26 1004.8 1004.7 -
21/12:30pm 28.1 - - - - N 44 56 24 30 1004.8 1004.7 -
21/12:17pm 28.4 - - - - N 39 - 21 - - 1004.8 -
21/12:00pm 27.3 - - - - N 43 59 23 32 1005.2 1005.1 -
21/11:47am 27.9 - - - - NNE 37 63 20 34 1005.2 1005.1 -
21/11:30am 27.9 - - - - N 37 44 20 24 1005.0 1004.9 -
21/11:17am 26.6 - - - - N 43 - 23 - - 1005.5 -
21/11:07am 27.0 - - - - NNE 30 56 16 30 1005.9 1005.8 -
21/11:05am 26.9 - - - - NNE 32 56 17 30 1005.6 1005.5 -
21/11:00am 27.0 - - - - NNE 48 59 26 32 1005.6 1005.5 -
21/10:30am 28.0 - - - - NE 44 57 24 31 1005.4 1005.3 -
21/10:17am 28.3 - - - - NE 52 - 28 - - 1005.3 -
21/10:00am 29.4 - - - - NE 50 59 27 32 1005.3 1005.2 -
21/09:30am 29.5 - - - - ENE 46 57 25 31 1005.5 1005.4 -
21/09:17am 29.4 - - - - ENE 48 - 26 - - 1005.1 -
21/09:00am 29.2 - - - - ENE 43 59 23 32 1005.7 1005.6 -
21/08:30am 29.2 - - - - ENE 46 57 25 31 1006.0 1005.9 -
21/08:17am 29.1 - - - - ENE 46 - 25 - - 1005.8 -
21/08:00am 29.0 - - - - ENE 44 54 24 29 1005.8 1005.7 -
21/07:30am 28.7 - - - - ENE 41 50 22 27 1006.3 1006.2 -
21/07:17am 28.7 - - - - ENE 39 - 21 - - 1005.8 -
21/07:00am 28.6 - - - - ENE 35 46 19 25 1005.8 1005.7 -
21/06:30am 28.3 - - - - ENE 37 43 20 23 1005.7 1005.6 -
21/06:17am 28.3 - - - - ENE 37 - 20 - - 1005.8 -
21/06:00am 27.2 - - - - ENE 43 52 23 28 1005.8 1005.7 -
21/05:30am 27.4 - - - - ENE 43 52 23 28 1005.7 1005.6 -
21/05:17am 26.7 - - - - ENE 43 - 23 - - 1005.7 -
21/05:00am 26.5 - - - - ENE 50 63 27 34 1006.1 1006.0 -
21/04:48am 27.7 - - - - ENE 41 63 22 34 1005.7 1005.6 -
21/04:30am 27.9 - - - - ENE 35 46 19 25 1005.6 1005.5 -
21/04:17am 27.2 - - - - ENE 35 - 19 - - 1005.3 -
21/04:00am 26.4 - - - - E 37 46 20 25 1005.4 1005.3 -
21/03:41am 26.2 - - - - ENE 43 61 23 33 1005.7 1005.6 -
21/03:30am 26.7 - - - - ENE 44 59 24 32 1005.7 1005.6 -
21/03:29am 26.9 - - - - ENE 43 59 23 32 1005.7 1005.6 -
21/03:17am 27.5 - - - - ENE 33 - 18 - - 1004.9 -
21/03:00am 27.1 - - - - ENE 32 39 17 21 1005.2 1005.1 -
21/02:30am 28.1 - - - - ENE 39 48 21 26 1005.2 1005.1 -
21/02:17am 28.2 - - - - ENE 37 - 20 - - 1005.3 -
21/02:00am 28.1 - - - - ENE 37 48 20 26 1005.3 1005.2 -
21/01:30am 27.9 - - - - ENE 39 46 21 25 1005.5 1005.4 -
21/01:17am 27.5 - - - - ENE 35 - 19 - - 1005.6 -
21/01:00am 27.6 - - - - ENE 30 37 16 20 1005.8 1005.7 -
21/12:30am 27.0 - - - - ENE 35 46 19 25 1006.5 1006.4 -
21/12:17am 26.6 - - - - ENE 43 - 23 - - 1006.3 -
21/12:00am 28.2 - - - - ENE 28 43 15 23 1006.4 1006.3 -
 
Date/Time
WST
Temp
°C
App
Temp
°C
Dew
Point
°C
Rel
Hum
%
Delta-T
°C
Wind Press
QNH
hPa
Press
MSL
hPa
Rain since
9am
mm
Dir  Spd
km/h
Gust
km/h
Spd
kts
Gust
kts
20/11:30pm 27.1 - - - - E 28 35 15 19 1006.6 1006.5 -
20/11:17pm 27.2 - - - - ENE 30 - 16 - - 1007.0 -
20/11:00pm 28.0 - - - - ENE 37 46 20 25 1007.1 1007.0 -
20/10:30pm 28.5 - - - - E 37 46 20 25 1007.0 1006.9 -
20/10:17pm 28.4 - - - - E 32 - 17 - - 1006.8 -

Other formats

Comma delimited format used in spreadsheet applications
http://www.bom.gov.au/fwo/IDW60801/IDW60801.94210.axf

JavaScript Object Notation format (JSON) in row-major order
http://www.bom.gov.au/fwo/IDW60801/IDW60801.94210.json

Data quality

Most of these data are generated automatically and are frequently updated. Quality checks on data are not normally performed. It is possible for incorrect values to appear. Refer to information at About Latest Weather Observations and please check the disclaimer before using these data.